sensor_id;sensor_type;location;lat;lon;timestamp;pressure;altitude;pressure_sealevel;temperature;humidity
4398;BME280;2213;49.720;7.296;2023-04-08T00:01:35;98533.31;;;8.82;100.00
4398;BME280;2213;49.720;7.296;2023-04-08T00:04:06;98526.28;;;8.83;100.00
4398;BME280;2213;49.720;7.296;2023-04-08T00:06:38;98519.28;;;8.83;100.00
4398;BME280;2213;49.720;7.296;2023-04-08T00:09:08;98521.75;;;8.85;100.00
4398;BME280;2213;49.720;7.296;2023-04-08T00:11:38;98513.94;;;8.85;100.00
4398;BME280;2213;49.720;7.296;2023-04-08T00:14:09;98519.78;;;8.87;100.00
4398;BME280;2213;49.720;7.296;2023-04-08T00:16:39;98511.81;;;8.88;100.00
4398;BME280;2213;49.720;7.296;2023-04-08T00:19:10;98517.81;;;8.89;100.00
4398;BME280;2213;49.720;7.296;2023-04-08T00:21:40;98510.50;;;8.84;100.00
4398;BME280;2213;49.720;7.296;2023-04-08T00:24:10;98518.13;;;8.86;100.00
4398;BME280;2213;49.720;7.296;2023-04-08T00:26:39;98516.19;;;8.88;100.00
4398;BME280;2213;49.720;7.296;2023-04-08T00:29:09;98514.56;;;8.87;100.00
4398;BME280;2213;49.720;7.296;2023-04-08T00:31:39;98519.44;;;8.90;100.00
4398;BME280;2213;49.720;7.296;2023-04-08T00:34:10;98521.91;;;8.91;100.00
4398;BME280;2213;49.720;7.296;2023-04-08T00:36:41;98529.06;;;8.89;100.00
4398;BME280;2213;49.720;7.296;2023-04-08T00:39:12;98529.88;;;8.90;100.00
4398;BME280;2213;49.720;7.296;2023-04-08T00:41:42;98527.94;;;8.92;100.00
4398;BME280;2213;49.720;7.296;2023-04-08T00:44:12;98525.31;;;8.92;100.00
4398;BME280;2213;49.720;7.296;2023-04-08T00:46:42;98521.91;;;8.91;100.00
4398;BME280;2213;49.720;7.296;2023-04-08T00:49:13;98532.47;;;8.90;100.00
4398;BME280;2213;49.720;7.296;2023-04-08T00:51:45;98528.72;;;8.92;100.00
4398;BME280;2213;49.720;7.296;2023-04-08T00:54:15;98533.16;;;8.92;100.00
4398;BME280;2213;49.720;7.296;2023-04-08T00:56:46;98532.16;;;8.93;100.00
4398;BME280;2213;49.720;7.296;2023-04-08T00:59:17;98526.78;;;8.94;100.00
4398;BME280;2213;49.720;7.296;2023-04-08T01:01:56;98533.78;;;8.94;100.00
4398;BME280;2213;49.720;7.296;2023-04-08T01:04:39;98532.81;;;8.95;100.00
4398;BME280;2213;49.720;7.296;2023-04-08T01:07:17;98534.44;;;8.96;100.00
4398;BME280;2213;49.720;7.296;2023-04-08T01:09:53;98528.44;;;8.95;100.00
4398;BME280;2213;49.720;7.296;2023-04-08T01:12:26;98528.25;;;8.97;100.00
4398;BME280;2213;49.720;7.296;2023-04-08T01:15:01;98527.28;;;8.98;100.00
4398;BME280;2213;49.720;7.296;2023-04-08T01:17:32;98532.81;;;8.95;100.00
4398;BME280;2213;49.720;7.296;2023-04-08T01:20:06;98525.00;;;8.95;100.00
4398;BME280;2213;49.720;7.296;2023-04-08T01:22:59;98534.44;;;8.96;100.00
4398;BME280;2213;49.720;7.296;2023-04-08T01:25:35;98524.00;;;8.96;100.00
4398;BME280;2213;49.720;7.296;2023-04-08T01:28:10;98536.56;;;9.00;100.00
4398;BME280;2213;49.720;7.296;2023-04-08T01:30:43;98532.63;;;8.96;100.00
4398;BME280;2213;49.720;7.296;2023-04-08T01:33:16;98536.88;;;8.97;100.00
4398;BME280;2213;49.720;7.296;2023-04-08T01:35:50;98534.09;;;8.99;100.00
4398;BME280;2213;49.720;7.296;2023-04-08T01:38:23;98534.44;;;8.96;100.00
4398;BME280;2213;49.720;7.296;2023-04-08T01:40:55;98529.69;;;8.99;100.00
4398;BME280;2213;49.720;7.296;2023-04-08T01:43:27;98536.69;;;8.99;100.00
4398;BME280;2213;49.720;7.296;2023-04-08T01:46:00;98534.09;;;8.99;100.00
4398;BME280;2213;49.720;7.296;2023-04-08T01:48:31;98527.28;;;8.98;100.00
4398;BME280;2213;49.720;7.296;2023-04-08T01:51:02;98526.78;;;8.94;100.00
4398;BME280;2213;49.720;7.296;2023-04-08T01:53:33;98526.78;;;8.94;100.00
4398;BME280;2213;49.720;7.296;2023-04-08T01:56:08;98526.78;;;8.94;100.00
4398;BME280;2213;49.720;7.296;2023-04-08T01:58:49;98521.72;;;8.93;100.00
4398;BME280;2213;49.720;7.296;2023-04-08T02:01:22;98530.69;;;8.90;100.00
4398;BME280;2213;49.720;7.296;2023-04-08T02:03:55;98532.16;;;8.93;100.00
4398;BME280;2213;49.720;7.296;2023-04-08T02:06:28;98533.78;;;8.94;100.00
4398;BME280;2213;49.720;7.296;2023-04-08T02:08:59;98524.19;;;8.94;100.00
4398;BME280;2213;49.720;7.296;2023-04-08T02:11:29;98531.19;;;8.94;100.00
4398;BME280;2213;49.720;7.296;2023-04-08T02:14:00;98531.19;;;8.94;100.00
4398;BME280;2213;49.720;7.296;2023-04-08T02:16:38;98529.88;;;8.90;100.00
4398;BME280;2213;49.720;7.296;2023-04-08T02:19:14;98536.06;;;8.89;100.00
4398;BME280;2213;49.720;7.296;2023-04-08T02:21:49;98534.28;;;8.89;100.00
4398;BME280;2213;49.720;7.296;2023-04-08T02:24:21;98529.88;;;8.90;100.00
4398;BME280;2213;49.720;7.296;2023-04-08T02:26:52;98533.16;;;8.92;100.00
4398;BME280;2213;49.720;7.296;2023-04-08T02:29:29;98533.94;;;8.92;100.00
4398;BME280;2213;49.720;7.296;2023-04-08T02:32:01;98543.59;;;8.92;100.00
4398;BME280;2213;49.720;7.296;2023-04-08T02:34:34;98544.38;;;8.92;100.00
4398;BME280;2213;49.720;7.296;2023-04-08T02:37:04;98540.66;;;8.95;100.00
4398;BME280;2213;49.720;7.296;2023-04-08T02:39:34;98539.50;;;8.97;100.00
4398;BME280;2213;49.720;7.296;2023-04-08T02:42:03;98538.84;;;8.95;100.00
4398;BME280;2213;49.720;7.296;2023-04-08T02:44:35;98538.03;;;8.95;100.00
4398;BME280;2213;49.720;7.296;2023-04-08T02:47:06;98541.94;;;8.91;100.00
4398;BME280;2213;49.720;7.296;2023-04-08T02:49:35;98541.63;;;8.94;100.00
4398;BME280;2213;49.720;7.296;2023-04-08T02:52:05;98542.44;;;8.94;100.00
4398;BME280;2213;49.720;7.296;2023-04-08T02:54:35;98542.44;;;8.94;100.00
4398;BME280;2213;49.720;7.296;2023-04-08T02:57:06;98540.66;;;8.95;100.00
4398;BME280;2213;49.720;7.296;2023-04-08T02:59:37;98534.28;;;8.89;100.00
4398;BME280;2213;49.720;7.296;2023-04-08T03:02:08;98539.00;;;8.86;100.00
4398;BME280;2213;49.720;7.296;2023-04-08T03:04:38;98535.75;;;8.84;100.00
4398;BME280;2213;49.720;7.296;2023-04-08T03:07:07;98538.84;;;8.87;100.00
4398;BME280;2213;49.720;7.296;2023-04-08T03:09:40;98541.59;;;8.86;100.00
4398;BME280;2213;49.720;7.296;2023-04-08T03:12:09;98537.41;;;8.85;100.00
4398;BME280;2213;49.720;7.296;2023-04-08T03:14:41;98540.00;;;8.85;100.00
4398;BME280;2213;49.720;7.296;2023-04-08T03:17:11;98534.94;;;8.83;100.00
4398;BME280;2213;49.720;7.296;2023-04-08T03:19:41;98537.41;;;8.85;100.00
4398;BME280;2213;49.720;7.296;2023-04-08T03:22:10;98538.03;;;8.87;100.00
4398;BME280;2213;49.720;7.296;2023-04-08T03:24:40;98536.72;;;8.83;100.00
4398;BME280;2213;49.720;7.296;2023-04-08T03:27:10;98534.13;;;8.83;100.00
4398;BME280;2213;49.720;7.296;2023-04-08T03:29:41;98533.63;;;8.79;100.00
4398;BME280;2213;49.720;7.296;2023-04-08T03:32:12;98540.31;;;8.82;100.00
4398;BME280;2213;49.720;7.296;2023-04-08T03:34:42;98542.41;;;8.78;100.00
4398;BME280;2213;49.720;7.296;2023-04-08T03:37:12;98541.63;;;8.78;100.00
4398;BME280;2213;49.720;7.296;2023-04-08T03:39:41;98542.28;;;8.80;100.00
4398;BME280;2213;49.720;7.296;2023-04-08T03:42:10;98545.22;;;8.77;100.00
4398;BME280;2213;49.720;7.296;2023-04-08T03:44:41;98543.56;;;8.76;100.00
4398;BME280;2213;49.720;7.296;2023-04-08T03:47:11;98542.59;;;8.77;100.00
4398;BME280;2213;49.720;7.296;2023-04-08T03:49:41;98547.16;;;8.83;100.00
4398;BME280;2213;49.720;7.296;2023-04-08T03:52:10;98545.22;;;8.77;100.00
4398;BME280;2213;49.720;7.296;2023-04-08T03:54:39;98540.97;;;8.76;100.00
4398;BME280;2213;49.720;7.296;2023-04-08T03:57:09;98547.81;;;8.77;100.00
4398;BME280;2213;49.720;7.296;2023-04-08T03:59:41;98545.84;;;8.79;100.00
4398;BME280;2213;49.720;7.296;2023-04-08T04:02:11;98540.31;;;8.74;100.00
4398;BME280;2213;49.720;7.296;2023-04-08T04:04:41;98543.56;;;8.76;100.00
4398;BME280;2213;49.720;7.296;2023-04-08T04:07:10;98535.41;;;8.79;100.00
4398;BME280;2213;49.720;7.296;2023-04-08T04:09:41;98542.41;;;8.78;100.00
4398;BME280;2213;49.720;7.296;2023-04-08T04:12:10;98545.84;;;8.79;100.00
4398;BME280;2213;49.720;7.296;2023-04-08T04:14:41;98541.94;;;8.75;100.00
4398;BME280;2213;49.720;7.296;2023-04-08T04:17:11;98536.41;;;8.78;100.00
4398;BME280;2213;49.720;7.296;2023-04-08T04:19:41;98535.09;;;8.74;100.00
4398;BME280;2213;49.720;7.296;2023-04-08T04:22:12;98542.25;;;8.72;100.00
4398;BME280;2213;49.720;7.296;2023-04-08T04:24:46;98548.78;;;8.76;100.00
4398;BME280;2213;49.720;7.296;2023-04-08T04:27:16;98547.97;;;8.75;100.00
4398;BME280;2213;49.720;7.296;2023-04-08T04:29:47;98548.78;;;8.76;100.00
4398;BME280;2213;49.720;7.296;2023-04-08T04:32:17;98551.41;;;8.76;100.00
4398;BME280;2213;49.720;7.296;2023-04-08T04:34:46;98549.75;;;8.75;100.00
4398;BME280;2213;49.720;7.296;2023-04-08T04:37:16;98553.50;;;8.72;100.00
4398;BME280;2213;49.720;7.296;2023-04-08T04:39:45;98551.09;;;8.71;100.00
4398;BME280;2213;49.720;7.296;2023-04-08T04:42:14;98540.97;;;8.68;100.00
4398;BME280;2213;49.720;7.296;2023-04-08T04:44:46;98554.97;;;8.67;100.00
4398;BME280;2213;49.720;7.296;2023-04-08T04:47:16;98556.78;;;8.66;100.00
4398;BME280;2213;49.720;7.296;2023-04-08T04:49:45;98565.41;;;8.67;100.00
4398;BME280;2213;49.720;7.296;2023-04-08T04:52:15;98562.13;;;8.65;100.00
4398;BME280;2213;49.720;7.296;2023-04-08T04:54:46;98562.13;;;8.65;100.00
4398;BME280;2213;49.720;7.296;2023-04-08T04:57:16;98565.75;;;8.64;100.00
4398;BME280;2213;49.720;7.296;2023-04-08T04:59:48;98566.56;;;8.64;100.00
4398;BME280;2213;49.720;7.296;2023-04-08T05:02:17;98568.50;;;8.62;100.00
4398;BME280;2213;49.720;7.296;2023-04-08T05:04:46;98569.31;;;8.63;100.00
4398;BME280;2213;49.720;7.296;2023-04-08T05:07:15;98576.00;;;8.65;100.00
4398;BME280;2213;49.720;7.296;2023-04-08T05:09:45;98572.56;;;8.65;100.00
4398;BME280;2213;49.720;7.296;2023-04-08T05:12:16;98582.19;;;8.64;100.00
4398;BME280;2213;49.720;7.296;2023-04-08T05:14:48;98577.97;;;8.63;100.00
4398;BME280;2213;49.720;7.296;2023-04-08T05:17:18;98580.56;;;8.63;100.00
4398;BME280;2213;49.720;7.296;2023-04-08T05:19:48;98590.16;;;8.63;100.00
4398;BME280;2213;49.720;7.296;2023-04-08T05:22:18;98589.53;;;8.61;100.00
4398;BME280;2213;49.720;7.296;2023-04-08T05:24:48;98587.41;;;8.64;100.00
4398;BME280;2213;49.720;7.296;2023-04-08T05:27:19;98581.38;;;8.64;100.00
4398;BME280;2213;49.720;7.296;2023-04-08T05:29:51;98586.91;;;8.61;100.00
4398;BME280;2213;49.720;7.296;2023-04-08T05:32:20;98592.78;;;8.63;100.00
4398;BME280;2213;49.720;7.296;2023-04-08T05:34:50;98586.91;;;8.61;100.00
4398;BME280;2213;49.720;7.296;2023-04-08T05:37:20;98593.75;;;8.62;100.00
4398;BME280;2213;49.720;7.296;2023-04-08T05:39:50;98588.53;;;8.62;100.00
4398;BME280;2213;49.720;7.296;2023-04-08T05:42:21;98593.75;;;8.62;100.00
4398;BME280;2213;49.720;7.296;2023-04-08T05:44:51;98593.75;;;8.62;100.00
4398;BME280;2213;49.720;7.296;2023-04-08T05:47:20;98599.78;;;8.62;100.00
4398;BME280;2213;49.720;7.296;2023-04-08T05:49:49;98595.38;;;8.63;100.00
4398;BME280;2213;49.720;7.296;2023-04-08T05:52:19;98597.66;;;8.66;100.00
4398;BME280;2213;49.720;7.296;2023-04-08T05:54:49;98599.63;;;8.64;100.00
4398;BME280;2213;49.720;7.296;2023-04-08T05:57:19;98609.38;;;8.62;100.00
4398;BME280;2213;49.720;7.296;2023-04-08T05:59:48;98601.91;;;8.67;100.00
4398;BME280;2213;49.720;7.296;2023-04-08T06:02:20;98610.38;;;8.69;100.00
4398;BME280;2213;49.720;7.296;2023-04-08T06:04:49;98611.03;;;8.71;100.00
4398;BME280;2213;49.720;7.296;2023-04-08T06:07:19;98614.94;;;8.75;100.00
4398;BME280;2213;49.720;7.296;2023-04-08T06:09:48;98613.63;;;8.79;100.00
4398;BME280;2213;49.720;7.296;2023-04-08T06:12:18;98608.91;;;8.82;100.00
4398;BME280;2213;49.720;7.296;2023-04-08T06:14:52;98615.63;;;8.85;100.00
4398;BME280;2213;49.720;7.296;2023-04-08T06:17:23;98611.19;;;8.85;100.00
4398;BME280;2213;49.720;7.296;2023-04-08T06:19:53;98612.34;;;8.83;100.00
4398;BME280;2213;49.720;7.296;2023-04-08T06:22:26;98618.22;;;8.85;100.00
4398;BME280;2213;49.720;7.296;2023-04-08T06:24:55;98612.03;;;8.86;100.00
4398;BME280;2213;49.720;7.296;2023-04-08T06:27:23;98619.22;;;8.92;100.00
4398;BME280;2213;49.720;7.296;2023-04-08T06:29:53;98621.81;;;8.84;100.00
4398;BME280;2213;49.720;7.296;2023-04-08T06:32:24;98620.66;;;8.86;100.00
4398;BME280;2213;49.720;7.296;2023-04-08T06:34:55;98634.19;;;8.82;100.00
4398;BME280;2213;49.720;7.296;2023-04-08T06:37:25;98630.59;;;8.83;100.00
4398;BME280;2213;49.720;7.296;2023-04-08T06:39:55;98638.75;;;8.80;100.00
4398;BME280;2213;49.720;7.296;2023-04-08T06:42:25;98639.41;;;8.74;100.00
4398;BME280;2213;49.720;7.296;2023-04-08T06:44:57;98644.63;;;8.74;100.00
4398;BME280;2213;49.720;7.296;2023-04-08T06:47:28;98644.44;;;8.75;100.00
4398;BME280;2213;49.720;7.296;2023-04-08T06:49:58;98651.94;;;8.78;100.00
4398;BME280;2213;49.720;7.296;2023-04-08T06:52:28;98653.75;;;8.78;100.00
4398;BME280;2213;49.720;7.296;2023-04-08T06:54:57;98656.34;;;8.78;100.00
4398;BME280;2213;49.720;7.296;2023-04-08T06:57:27;98651.94;;;8.78;100.00
4398;BME280;2213;49.720;7.296;2023-04-08T06:59:56;98655.03;;;8.82;100.00
4398;BME280;2213;49.720;7.296;2023-04-08T07:02:29;98657.66;;;8.82;100.00
4398;BME280;2213;49.720;7.296;2023-04-08T07:04:59;98662.84;;;8.82;100.00
4398;BME280;2213;49.720;7.296;2023-04-08T07:07:30;98661.75;;;8.84;100.00
4398;BME280;2213;49.720;7.296;2023-04-08T07:09:59;98661.41;;;8.87;100.00
4398;BME280;2213;49.720;7.296;2023-04-08T07:12:29;98665.84;;;8.95;100.00
4398;BME280;2213;49.720;7.296;2023-04-08T07:14:59;98661.25;;;8.97;100.00
4398;BME280;2213;49.720;7.296;2023-04-08T07:17:30;98669.44;;;9.02;100.00
4398;BME280;2213;49.720;7.296;2023-04-08T07:20:00;98674.16;;;9.06;100.00
4398;BME280;2213;49.720;7.296;2023-04-08T07:22:31;98666.50;;;9.05;100.00
4398;BME280;2213;49.720;7.296;2023-04-08T07:25:01;98674.00;;;9.08;100.00
4398;BME280;2213;49.720;7.296;2023-04-08T07:27:32;98671.72;;;9.05;100.00
4398;BME280;2213;49.720;7.296;2023-04-08T07:30:01;98670.09;;;9.12;100.00
4398;BME280;2213;49.720;7.296;2023-04-08T07:32:33;98674.97;;;9.15;100.00
4398;BME280;2213;49.720;7.296;2023-04-08T07:35:04;98674.16;;;9.15;100.00
4398;BME280;2213;49.720;7.296;2023-04-08T07:37:33;98680.84;;;9.09;100.00
4398;BME280;2213;49.720;7.296;2023-04-08T07:40:04;98679.22;;;9.08;100.00
4398;BME280;2213;49.720;7.296;2023-04-08T07:42:33;98675.44;;;9.02;100.00
4398;BME280;2213;49.720;7.296;2023-04-08T07:45:07;98682.47;;;9.02;100.00
4398;BME280;2213;49.720;7.296;2023-04-08T07:47:38;98681.31;;;9.04;100.00
4398;BME280;2213;49.720;7.296;2023-04-08T07:50:09;98688.81;;;9.07;100.00
4398;BME280;2213;49.720;7.296;2023-04-08T07:52:39;98678.41;;;9.16;100.00
4398;BME280;2213;49.720;7.296;2023-04-08T07:55:09;98683.94;;;9.21;100.00
4398;BME280;2213;49.720;7.296;2023-04-08T07:57:39;98686.72;;;9.19;100.00
4398;BME280;2213;49.720;7.296;2023-04-08T08:00:10;98687.72;;;9.26;100.00
4398;BME280;2213;49.720;7.296;2023-04-08T08:02:49;98685.41;;;9.31;100.00
4398;BME280;2213;49.720;7.296;2023-04-08T08:05:19;98696.19;;;9.28;100.00
4398;BME280;2213;49.720;7.296;2023-04-08T08:07:49;98699.13;;;9.33;100.00
4398;BME280;2213;49.720;7.296;2023-04-08T08:10:18;98697.16;;;9.35;100.00
4398;BME280;2213;49.720;7.296;2023-04-08T08:12:49;98699.44;;;9.38;100.00
4398;BME280;2213;49.720;7.296;2023-04-08T08:15:19;98706.97;;;9.33;100.00
4398;BME280;2213;49.720;7.296;2023-04-08T08:17:50;98707.94;;;9.40;100.00
4398;BME280;2213;49.720;7.296;2023-04-08T08:20:20;98709.41;;;9.43;100.00
4398;BME280;2213;49.720;7.296;2023-04-08T08:22:50;98703.34;;;9.42;100.00
4398;BME280;2213;49.720;7.296;2023-04-08T08:25:24;98709.56;;;9.49;100.00
4398;BME280;2213;49.720;7.296;2023-04-08T08:27:54;98708.06;;;9.55;100.00
4398;BME280;2213;49.720;7.296;2023-04-08T08:30:24;98714.78;;;9.57;100.00
4398;BME280;2213;49.720;7.296;2023-04-08T08:32:55;98710.22;;;9.59;100.00
4398;BME280;2213;49.720;7.296;2023-04-08T08:35:27;98717.88;;;9.61;100.00
4398;BME280;2213;49.720;7.296;2023-04-08T08:37:57;98720.66;;;9.59;100.00
4398;BME280;2213;49.720;7.296;2023-04-08T08:40:28;98720.31;;;9.63;100.00
4398;BME280;2213;49.720;7.296;2023-04-08T08:42:58;98718.38;;;9.56;100.00
4398;BME280;2213;49.720;7.296;2023-04-08T08:45:28;98714.47;;;9.60;100.00
4398;BME280;2213;49.720;7.296;2023-04-08T08:47:59;98715.59;;;9.66;100.00
4398;BME280;2213;49.720;7.296;2023-04-08T08:50:28;98712.00;;;9.67;100.00
4398;BME280;2213;49.720;7.296;2023-04-08T08:52:58;98722.25;;;9.69;100.00
4398;BME280;2213;49.720;7.296;2023-04-08T08:55:30;98724.09;;;9.68;100.00
4398;BME280;2213;49.720;7.296;2023-04-08T08:58:21;98727.16;;;9.80;100.00
4398;BME280;2213;49.720;7.296;2023-04-08T09:00:51;98727.50;;;9.85;100.00
4398;BME280;2213;49.720;7.296;2023-04-08T09:03:25;98726.66;;;9.84;100.00
4398;BME280;2213;49.720;7.296;2023-04-08T09:05:59;98723.72;;;9.87;100.00
4398;BME280;2213;49.720;7.296;2023-04-08T09:08:31;98722.22;;;9.93;100.00
4398;BME280;2213;49.720;7.296;2023-04-08T09:11:13;98720.78;;;9.98;100.00
4398;BME280;2213;49.720;7.296;2023-04-08T09:13:45;98734.97;;;10.04;100.00
4398;BME280;2213;49.720;7.296;2023-04-08T09:16:16;98729.41;;;10.07;100.00
4398;BME280;2213;49.720;7.296;2023-04-08T09:18:49;98723.38;;;10.06;100.00
4398;BME280;2213;49.720;7.296;2023-04-08T09:21:22;98729.56;;;10.05;100.00
4398;BME280;2213;49.720;7.296;2023-04-08T09:23:54;98726.00;;;10.06;100.00
4398;BME280;2213;49.720;7.296;2023-04-08T09:26:23;98732.69;;;10.09;100.00
4398;BME280;2213;49.720;7.296;2023-04-08T09:29:02;98727.44;;;10.01;100.00
4398;BME280;2213;49.720;7.296;2023-04-08T09:31:55;98728.13;;;10.03;100.00
4398;BME280;2213;49.720;7.296;2023-04-08T09:34:27;98728.59;;;10.06;100.00
4398;BME280;2213;49.720;7.296;2023-04-08T09:36:59;98734.94;;;10.12;100.00
4398;BME280;2213;49.720;7.296;2023-04-08T09:39:29;98732.16;;;10.13;100.00
4398;BME280;2213;49.720;7.296;2023-04-08T09:42:03;98726.81;;;10.15;100.00
4398;BME280;2213;49.720;7.296;2023-04-08T09:44:36;98733.00;;;10.22;100.00
4398;BME280;2213;49.720;7.296;2023-04-08T09:47:14;98731.50;;;10.28;100.00
4398;BME280;2213;49.720;7.296;2023-04-08T09:49:54;98725.97;;;10.31;100.00
4398;BME280;2213;49.720;7.296;2023-04-08T09:52:35;98729.34;;;10.39;100.00
4398;BME280;2213;49.720;7.296;2023-04-08T09:55:08;98729.97;;;10.41;100.00
4398;BME280;2213;49.720;7.296;2023-04-08T09:57:44;98731.47;;;10.44;100.00
4398;BME280;2213;49.720;7.296;2023-04-08T10:00:16;98732.59;;;10.41;100.00
4398;BME280;2213;49.720;7.296;2023-04-08T10:03:00;98721.50;;;10.39;100.00
4398;BME280;2213;49.720;7.296;2023-04-08T10:05:37;98725.41;;;10.43;100.00
4398;BME280;2213;49.720;7.296;2023-04-08T10:08:09;98722.78;;;10.51;100.00
4398;BME280;2213;49.720;7.296;2023-04-08T10:10:40;98732.34;;;10.59;100.00
4398;BME280;2213;49.720;7.296;2023-04-08T10:13:11;98734.13;;;10.67;100.00
4398;BME280;2213;49.720;7.296;2023-04-08T10:15:41;98736.06;;;10.73;100.00
4398;BME280;2213;49.720;7.296;2023-04-08T10:18:31;98735.41;;;10.79;100.00
4398;BME280;2213;49.720;7.296;2023-04-08T10:21:02;98731.09;;;10.86;100.00
4398;BME280;2213;49.720;7.296;2023-04-08T10:23:55;98732.06;;;10.93;100.00
4398;BME280;2213;49.720;7.296;2023-04-08T10:26:35;98734.47;;;10.94;100.00
4398;BME280;2213;49.720;7.296;2023-04-08T10:29:31;98728.91;;;10.97;100.00
4398;BME280;2213;49.720;7.296;2023-04-08T10:32:02;98724.97;;;11.01;100.00
4398;BME280;2213;49.720;7.296;2023-04-08T10:34:32;98714.25;;;11.11;100.00
4398;BME280;2213;49.720;7.296;2023-04-08T10:37:04;98726.09;;;11.07;100.00
4398;BME280;2213;49.720;7.296;2023-04-08T10:39:35;98714.91;;;11.13;100.00
4398;BME280;2213;49.720;7.296;2023-04-08T10:42:07;98703.38;;;11.22;100.00
4398;BME280;2213;49.720;7.296;2023-04-08T10:44:43;98717.25;;;11.31;100.00
4398;BME280;2213;49.720;7.296;2023-04-08T10:47:12;98714.09;;;11.35;100.00
4398;BME280;2213;49.720;7.296;2023-04-08T10:49:41;98720.59;;;11.39;100.00
4398;BME280;2213;49.720;7.296;2023-04-08T10:52:14;98712.03;;;11.45;100.00
4398;BME280;2213;49.720;7.296;2023-04-08T10:54:46;98712.34;;;11.50;100.00
4398;BME280;2213;49.720;7.296;2023-04-08T10:57:23;98709.66;;;11.58;100.00
4398;BME280;2213;49.720;7.296;2023-04-08T10:59:55;98716.69;;;11.58;100.00
4398;BME280;2213;49.720;7.296;2023-04-08T11:02:32;98711.56;;;11.65;100.00
4398;BME280;2213;49.720;7.296;2023-04-08T11:05:01;98719.06;;;11.68;100.00
4398;BME280;2213;49.720;7.296;2023-04-08T11:07:32;98707.28;;;11.72;100.00
4398;BME280;2213;49.720;7.296;2023-04-08T11:10:03;98708.19;;;11.79;100.00
4398;BME280;2213;49.720;7.296;2023-04-08T11:12:34;98717.97;;;11.85;100.00
4398;BME280;2213;49.720;7.296;2023-04-08T11:15:06;98706.19;;;11.81;100.00
4398;BME280;2213;49.720;7.296;2023-04-08T11:17:38;98707.53;;;11.77;100.00
4398;BME280;2213;49.720;7.296;2023-04-08T11:20:09;98716.41;;;11.76;100.00
4398;BME280;2213;49.720;7.296;2023-04-08T11:22:41;98709.47;;;11.83;100.00
4398;BME280;2213;49.720;7.296;2023-04-08T11:25:11;98721.50;;;11.92;100.00
4398;BME280;2213;49.720;7.296;2023-04-08T11:27:40;98716.34;;;11.98;100.00
4398;BME280;2213;49.720;7.296;2023-04-08T11:30:12;98711.91;;;11.99;100.00
4398;BME280;2213;49.720;7.296;2023-04-08T11:32:42;98723.84;;;12.01;100.00
4398;BME280;2213;49.720;7.296;2023-04-08T11:35:16;98717.78;;;12.01;100.00
4398;BME280;2213;49.720;7.296;2023-04-08T11:37:47;98717.53;;;11.96;100.00
4398;BME280;2213;49.720;7.296;2023-04-08T11:40:20;98719.06;;;12.05;100.00
4398;BME280;2213;49.720;7.296;2023-04-08T11:42:52;98714.94;;;12.10;100.00
4398;BME280;2213;49.720;7.296;2023-04-08T11:45:22;98717.09;;;12.07;97.73
4398;BME280;2213;49.720;7.296;2023-04-08T11:47:53;98714.84;;;12.04;95.39
4398;BME280;2213;49.720;7.296;2023-04-08T11:50:24;98716.91;;;12.08;98.10
4398;BME280;2213;49.720;7.296;2023-04-08T11:52:55;98718.38;;;12.11;96.89
4398;BME280;2213;49.720;7.296;2023-04-08T11:55:28;98719.34;;;12.10;98.66
4398;BME280;2213;49.720;7.296;2023-04-08T11:58:03;98722.44;;;12.14;97.00
4398;BME280;2213;49.720;7.296;2023-04-08T12:00:33;98716.06;;;12.08;94.25
4398;BME280;2213;49.720;7.296;2023-04-08T12:03:05;98717.47;;;12.04;91.02
4398;BME280;2213;49.720;7.296;2023-04-08T12:05:34;98721.31;;;11.93;91.50
4398;BME280;2213;49.720;7.296;2023-04-08T12:08:05;98718.34;;;11.96;93.97
4398;BME280;2213;49.720;7.296;2023-04-08T12:10:36;98720.06;;;11.89;93.25
4398;BME280;2213;49.720;7.296;2023-04-08T12:13:05;98725.19;;;11.83;92.03
4398;BME280;2213;49.720;7.296;2023-04-08T12:15:36;98729.78;;;11.81;92.58
4398;BME280;2213;49.720;7.296;2023-04-08T12:18:05;98726.44;;;11.72;91.94
4398;BME280;2213;49.720;7.296;2023-04-08T12:20:35;98722.00;;;11.73;94.05
4398;BME280;2213;49.720;7.296;2023-04-08T12:23:05;98714.63;;;11.76;95.63
4398;BME280;2213;49.720;7.296;2023-04-08T12:25:34;98718.56;;;11.72;98.04
4398;BME280;2213;49.720;7.296;2023-04-08T12:28:04;98717.22;;;11.76;98.44
4398;BME280;2213;49.720;7.296;2023-04-08T12:30:36;98713.06;;;11.82;100.00
4398;BME280;2213;49.720;7.296;2023-04-08T12:33:07;98721.66;;;11.76;99.34
4398;BME280;2213;49.720;7.296;2023-04-08T12:35:40;98716.00;;;11.87;100.00
4398;BME280;2213;49.720;7.296;2023-04-08T12:38:12;98722.03;;;11.87;100.00
4398;BME280;2213;49.720;7.296;2023-04-08T12:40:42;98720.94;;;11.82;100.00
4398;BME280;2213;49.720;7.296;2023-04-08T12:43:12;98718.03;;;11.77;98.82
4398;BME280;2213;49.720;7.296;2023-04-08T12:45:41;98717.88;;;11.70;96.52
4398;BME280;2213;49.720;7.296;2023-04-08T12:48:12;98710.53;;;11.74;96.01
4398;BME280;2213;49.720;7.296;2023-04-08T12:50:43;98716.78;;;11.73;95.30
4398;BME280;2213;49.720;7.296;2023-04-08T12:53:13;98709.00;;;11.79;96.94
4398;BME280;2213;49.720;7.296;2023-04-08T12:55:43;98711.44;;;11.81;96.42
4398;BME280;2213;49.720;7.296;2023-04-08T12:58:16;98712.09;;;11.83;97.00
4398;BME280;2213;49.720;7.296;2023-04-08T13:00:48;98707.31;;;11.86;94.11
4398;BME280;2213;49.720;7.296;2023-04-08T13:03:18;98704.69;;;11.86;91.44
4398;BME280;2213;49.720;7.296;2023-04-08T13:05:48;98708.38;;;11.92;91.26
4398;BME280;2213;49.720;7.296;2023-04-08T13:08:19;98712.34;;;11.88;89.67
4398;BME280;2213;49.720;7.296;2023-04-08T13:10:49;98701.88;;;11.88;90.42
4398;BME280;2213;49.720;7.296;2023-04-08T13:13:19;98698.72;;;11.92;94.52
4398;BME280;2213;49.720;7.296;2023-04-08T13:15:48;98700.88;;;11.89;95.75
4398;BME280;2213;49.720;7.296;2023-04-08T13:18:18;98697.09;;;11.91;93.75
4398;BME280;2213;49.720;7.296;2023-04-08T13:20:48;98696.72;;;11.94;93.48
4398;BME280;2213;49.720;7.296;2023-04-08T13:23:19;98693.31;;;11.94;94.22
4398;BME280;2213;49.720;7.296;2023-04-08T13:25:50;98702.34;;;12.06;95.41
4398;BME280;2213;49.720;7.296;2023-04-08T13:28:20;98691.69;;;12.07;93.69
4398;BME280;2213;49.720;7.296;2023-04-08T13:30:50;98705.25;;;12.11;93.09
4398;BME280;2213;49.720;7.296;2023-04-08T13:33:20;98696.22;;;12.14;90.99
4398;BME280;2213;49.720;7.296;2023-04-08T13:35:52;98709.13;;;12.15;90.16
4398;BME280;2213;49.720;7.296;2023-04-08T13:38:24;98696.91;;;12.22;91.36
4398;BME280;2213;49.720;7.296;2023-04-08T13:40:54;98685.53;;;12.30;91.09
4398;BME280;2213;49.720;7.296;2023-04-08T13:43:24;98688.69;;;12.40;89.91